Ken Ryu — H9RG — position and weather

sailwx.info

Track history (hours):
 
Tides and Currents Weather Stations Pressure Air Temp Water Temp Dewpoint Dewpoint Depression Visibility Wind Speed Wind Dir Waves Ship Positions

Ken Ryu

Last reported at 2017-Nov-13 01:13 UTC. Time now 2017-Nov-22 13:12 UTC.
Position N 01°13' E 103°29'.
Warning: this ship's position is 9 days out of date.

Length 171 m; draft 6.2 m.

Type: Cargo ship. MMSI: 372936000.

Date/timePositionNaut miles runAvg speedWind from/ knotsBaromVisibWave heightAir tempDewpointWater temp
2017-Nov-13 01:13N 01°13' E 103°29'313.0
2017-Nov-13 01:00N 01°13' E 103°32'712.6
2017-Nov-13 00:29N 01°11' E 103°38'612.9
2017-Nov-13 00:01N 01°09' E 103°44'611.3
2017-Nov-12 23:30N 01°12' E 103°48'1 1.2
2017-Nov-12 22:46N 01°13' E 103°49'0 0.1
2017-Nov-12 20:22N 01°13' E 103°49'0 0.2
2017-Nov-12 19:58N 01°13' E 103°49'3 7.7
2017-Nov-12 19:31N 01°13' E 103°53'3 1.3
2017-Nov-12 16:59N 01°16' E 103°54'0 0.0
2017-Nov-12 16:23N 01°16' E 103°54'0 0.0
2017-Nov-12 15:53N 01°16' E 103°54'0 0.0
2017-Nov-12 06:16N 01°16' E 103°54'0 0.0
2017-Nov-12 05:52N 01°16' E 103°54'0 0.1
2017-Nov-12 05:28N 01°16' E 103°54'0 0.0
2017-Nov-12 04:19N 01°16' E 103°54'0 0.0
2017-Nov-12 03:52N 01°16' E 103°54'0 0.3
2017-Nov-12 03:30N 01°16' E 103°54'1 2.2
2017-Nov-12 03:00N 01°15' E 103°53'4 8.4
2017-Nov-12 02:30N 01°12' E 103°50'611.5
2017-Nov-12 02:01N 01°15' E 103°46'611.4
2017-Nov-12 01:30N 01°13' E 103°40'4 7.7
2017-Nov-12 01:00N 01°16' E 103°39'2 3.0
2017-Nov-12 00:30N 01°18' E 103°39'1 2.3
2017-Nov-12 00:00N 01°19' E 103°38'0 0.0
2017-Nov-11 23:30N 01°19' E 103°38'0 0.0
2017-Nov-11 22:44N 01°19' E 103°38'0 0.0
2017-Nov-11 22:29N 01°19' E 103°38'0 0.0
2017-Nov-11 21:59N 01°19' E 103°38'0 0.0
2017-Nov-11 21:29N 01°19' E 103°38'0 0.0
2017-Nov-11 20:44N 01°19' E 103°38'0 0.0
2017-Nov-11 20:14N 01°19' E 103°38'0 0.0
2017-Nov-11 19:59N 01°19' E 103°38'0 0.0
2017-Nov-11 19:29N 01°19' E 103°38'0 0.0
2017-Nov-11 18:59N 01°19' E 103°38'0 0.0
2017-Nov-11 18:17N 01°19' E 103°38'0 0.0
2017-Nov-11 16:17N 01°19' E 103°38'0 0.0
2017-Nov-11 15:59N 01°19' E 103°38'0 0.0
2017-Nov-11 14:43N 01°19' E 103°38'0 0.0
2017-Nov-11 14:28N 01°19' E 103°38'0 0.0
2017-Nov-11 12:55N 01°19' E 103°38'0 0.0
2017-Nov-11 12:16N 01°19' E 103°38'0 0.0
2017-Nov-11 11:49N 01°19' E 103°38'0 0.0
2017-Nov-11 10:04N 01°19' E 103°38'0 0.0
2017-Nov-11 08:43N 01°19' E 103°38'0 0.0
2017-Nov-11 08:13N 01°19' E 103°38'0 0.0
2017-Nov-11 05:49N 01°19' E 103°38'0 0.0
2017-Nov-11 05:28N 01°19' E 103°38'0 0.0
2017-Nov-11 04:55N 01°19' E 103°38'0 0.0
2017-Nov-10 22:52N 01°19' E 103°38'0 0.0
2017-Nov-10 21:40N 01°19' E 103°38'0 0.0
2017-Nov-10 21:28N 01°19' E 103°38'0 0.0
2017-Nov-10 20:58N 01°19' E 103°38'0 0.0
2017-Nov-10 20:28N 01°19' E 103°38'0 0.0
2017-Nov-10 19:52N 01°19' E 103°38'0 0.0
2017-Nov-10 18:01N 01°19' E 103°38'0 0.0
2017-Nov-10 17:43N 01°19' E 103°38'0 0.0
2017-Nov-10 17:19N 01°19' E 103°38'0 0.0
2017-Nov-10 16:58N 01°19' E 103°38'0 0.0
2017-Nov-10 16:04N 01°19' E 103°38'0 0.0
2017-Nov-10 15:34N 01°19' E 103°38'0 0.0
2017-Nov-10 15:22N 01°19' E 103°38'0 0.0
2017-Nov-10 14:58N 01°19' E 103°38'0 0.0
2017-Nov-10 14:22N 01°19' E 103°38'0 0.0
2017-Nov-10 13:58N 01°19' E 103°38'0 0.0
2017-Nov-10 12:55N 01°19' E 103°38'0 0.0
2017-Nov-10 09:13N 01°19' E 103°38'0 0.0
2017-Nov-10 08:43N 01°19' E 103°38'0 0.0
2017-Nov-10 06:13N 01°19' E 103°38'0 0.0
2017-Nov-10 05:55N 01°19' E 103°38'0 0.0
2017-Nov-10 04:46N 01°19' E 103°38'0 0.0
2017-Nov-10 04:22N 01°19' E 103°38'0 0.0
2017-Nov-10 03:52N 01°19' E 103°38'0 0.0
2017-Nov-10 03:28N 01°19' E 103°38'0 0.0
2017-Nov-10 02:55N 01°19' E 103°38'0 0.0
2017-Nov-10 02:19N 01°19' E 103°38'0 0.0
2017-Nov-10 01:46N 01°19' E 103°38'0 0.0
2017-Nov-10 01:22N 01°19' E 103°38'0 0.0
2017-Nov-10 00:40N 01°19' E 103°38'0 0.0
2017-Nov-09 22:58N 01°19' E 103°38'0 0.0
2017-Nov-09 22:30N 01°19' E 103°38'0 0.0
2017-Nov-09 21:27N 01°19' E 103°38'0 0.0
2017-Nov-09 20:57N 01°19' E 103°38'0 0.0
2017-Nov-09 20:21N 01°19' E 103°38'0 0.0
2017-Nov-09 20:00N 01°19' E 103°38'0 0.0
2017-Nov-09 19:00N 01°19' E 103°38'0 0.0
2017-Nov-09 18:30N 01°19' E 103°38'0 0.0
2017-Nov-09 16:36N 01°19' E 103°38'0 0.0
2017-Nov-09 16:30N 01°19' E 103°38'0 0.0
2017-Nov-09 15:42N 01°19' E 103°38'0 0.0
2017-Nov-09 15:27N 01°19' E 103°38'0 0.0
2017-Nov-09 15:00N 01°19' E 103°38'0 0.0
2017-Nov-09 14:18N 01°19' E 103°38'0 0.0
2017-Nov-09 13:57N 01°19' E 103°38'0 0.0
2017-Nov-09 13:12N 01°19' E 103°38'0 0.0
2017-Nov-09 13:00N 01°19' E 103°38'0 0.0
2017-Nov-09 12:27N 01°19' E 103°38'0 0.0
2017-Nov-09 11:48N 01°19' E 103°38'0 0.0
2017-Nov-09 11:27N 01°19' E 103°38'0 0.0
2017-Nov-09 11:00N 01°19' E 103°38'0 0.0
2017-Nov-09 10:18N 01°19' E 103°38'0 0.0
2017-Nov-09 09:57N 01°19' E 103°38'0 0.0
2017-Nov-09 09:30N 01°19' E 103°38'0 0.0
2017-Nov-09 09:00N 01°19' E 103°38'0 0.0
2017-Nov-09 08:27N 01°19' E 103°38'0 0.0
2017-Nov-09 07:54N 01°19' E 103°38'0 0.0
2017-Nov-09 07:30N 01°19' E 103°38'0 0.0
2017-Nov-09 06:51N 01°19' E 103°38'0 0.0
2017-Nov-09 06:27N 01°19' E 103°38'0 0.0
2017-Nov-09 05:54N 01°19' E 103°38'0 0.0
2017-Nov-09 05:15N 01°19' E 103°38'0 0.0
2017-Nov-09 04:51N 01°19' E 103°38'0 0.0
2017-Nov-09 04:24N 01°19' E 103°38'0 0.0
2017-Nov-09 03:30N 01°19' E 103°38'0 0.0
2017-Nov-09 02:03N 01°19' E 103°38'0 0.0
2017-Nov-09 01:51N 01°19' E 103°38'0 0.0
2017-Nov-09 01:30N 01°19' E 103°38'0 0.0
2017-Nov-09 01:00N 01°19' E 103°38'0 0.0
2017-Nov-09 00:18N 01°19' E 103°38'0 0.0
2017-Nov-08 23:54N 01°19' E 103°38'0 0.0
2017-Nov-08 23:15N 01°19' E 103°38'0 0.0
2017-Nov-08 20:24N 01°19' E 103°38'0 0.0
2017-Nov-08 20:00N 01°19' E 103°38'0 0.0
2017-Nov-08 19:06N 01°19' E 103°38'0 0.0
2017-Nov-08 19:00N 01°19' E 103°38'0 0.0
2017-Nov-08 17:21N 01°19' E 103°38'0 0.0
2017-Nov-08 16:03N 01°19' E 103°38'0 0.0
2017-Nov-08 16:00N 01°19' E 103°38'0 0.0
2017-Nov-08 15:30N 01°19' E 103°38'0 0.0
2017-Nov-08 14:12N 01°19' E 103°38'0 0.0
2017-Nov-08 13:54N 01°19' E 103°38'0 0.0
2017-Nov-08 13:21N 01°19' E 103°38'0 0.0
2017-Nov-08 12:57N 01°19' E 103°38'0 0.0
2017-Nov-08 11:39N 01°19' E 103°38'0 0.0
2017-Nov-08 11:27N 01°19' E 103°38'0 0.0
2017-Nov-08 11:00N 01°19' E 103°38'0 0.0
2017-Nov-08 10:30N 01°19' E 103°38'0 0.0
2017-Nov-08 07:39N 01°19' E 103°38'0 0.0
2017-Nov-08 07:29N 01°19' E 103°38'0 0.0
2017-Nov-08 06:59N 01°19' E 103°38'0 0.0
2017-Nov-08 06:05N 01°19' E 103°38'0 0.0
2017-Nov-08 05:56N 01°19' E 103°38'0 0.0
2017-Nov-08 05:23N 01°19' E 103°38'0 0.0
2017-Nov-08 04:56N 01°19' E 103°38'0 0.0
2017-Nov-08 04:20N 01°19' E 103°38'0 0.0
2017-Nov-08 03:38N 01°19' E 103°38'0 0.0
2017-Nov-08 03:23N 01°19' E 103°38'0 0.0
2017-Nov-08 02:47N 01°19' E 103°38'0 0.0
2017-Nov-08 02:29N 01°19' E 103°38'0 0.0
2017-Nov-08 01:47N 01°19' E 103°38'0 0.0
2017-Nov-08 01:29N 01°19' E 103°38'0 0.0
2017-Nov-08 00:56N 01°19' E 103°38'0 0.0
2017-Nov-08 00:02N 01°19' E 103°38'0 0.0
2017-Nov-07 23:20N 01°19' E 103°38'0 0.0
2017-Nov-07 22:47N 01°19' E 103°38'0 0.0
2017-Nov-07 22:20N 01°19' E 103°38'0 0.0
2017-Nov-07 21:35N 01°19' E 103°38'0 0.0
2017-Nov-07 21:05N 01°19' E 103°38'0 0.0
2017-Nov-07 20:59N 01°19' E 103°38'0 0.0
2017-Nov-07 20:14N 01°19' E 103°38'0 0.0
2017-Nov-07 19:59N 01°19' E 103°38'0 0.0
2017-Nov-07 19:26N 01°19' E 103°38'0 0.0
2017-Nov-07 18:38N 01°19' E 103°38'0 0.0
2017-Nov-07 18:29N 01°19' E 103°38'0 0.0
2017-Nov-07 17:53N 01°19' E 103°38'0 0.0
2017-Nov-07 17:26N 01°19' E 103°38'0 0.0
2017-Nov-07 16:59N 01°19' E 103°38'0 0.0
2017-Nov-07 16:29N 01°19' E 103°38'0 0.0
2017-Nov-07 15:56N 01°19' E 103°38'0 0.0
2017-Nov-07 15:23N 01°19' E 103°38'0 0.0
2017-Nov-07 14:41N 01°19' E 103°38'0 0.0
2017-Nov-07 14:23N 01°19' E 103°38'0 0.0
2017-Nov-07 13:59N 01°19' E 103°38'0 0.0
2017-Nov-07 13:05N 01°19' E 103°38'0 0.0
2017-Nov-07 12:56N 01°19' E 103°38'0 0.0
2017-Nov-07 12:26N 01°19' E 103°38'0 0.0
2017-Nov-07 11:59N 01°19' E 103°38'0 0.0
2017-Nov-07 11:23N 01°19' E 103°38'0 0.0
2017-Nov-07 10:59N 01°19' E 103°38'0 0.0
2017-Nov-07 10:29N 01°19' E 103°38'0 0.0
2017-Nov-07 09:59N 01°19' E 103°38'0 0.0
2017-Nov-07 09:29N 01°19' E 103°38'0 0.0
2017-Nov-07 08:59N 01°19' E 103°38'0 0.0
2017-Nov-07 08:08N 01°19' E 103°38'0 0.0
2017-Nov-07 07:44N 01°19' E 103°38'0 0.0
2017-Nov-07 05:38N 01°19' E 103°38'0 0.0
2017-Nov-07 05:23N 01°19' E 103°38'0 0.0
2017-Nov-07 04:02N 01°19' E 103°38'0 0.0
2017-Nov-07 02:50N 01°19' E 103°38'0 0.0
2017-Nov-07 00:59N 01°19' E 103°38'0 0.0
2017-Nov-06 23:38N 01°19' E 103°38'0 0.0
2017-Nov-06 23:26N 01°19' E 103°38'0 0.0
2017-Nov-06 22:17N 01°19' E 103°38'0 0.0
2017-Nov-06 21:59N 01°19' E 103°38'0 0.0
2017-Nov-06 21:23N 01°19' E 103°38'0 0.0
2017-Nov-06 20:08N 01°19' E 103°38'0 0.0
2017-Nov-06 02:19N 01°19' E 103°38'0 0.0
2017-Nov-06 00:40N 01°19' E 103°38'0 0.0
2017-Nov-06 00:28N 01°19' E 103°38'0 0.0
2017-Nov-05 23:58N 01°19' E 103°38'0 0.0
2017-Nov-05 20:04N 01°19' E 103°38'0 0.0
2017-Nov-05 16:37N 01°19' E 103°38'0 0.0
2017-Nov-05 16:28N 01°19' E 103°38'0 0.0
2017-Nov-05 11:56N 01°19' E 103°38'0 0.0
2017-Nov-05 10:38N 01°19' E 103°38'0 0.0
2017-Nov-05 10:23N 01°19' E 103°38'0 0.0
2017-Nov-05 09:59N 01°19' E 103°38'0 0.0
2017-Nov-05 04:53N 01°19' E 103°38'0 0.0
2017-Nov-05 02:47N 01°19' E 103°38'0 0.0
2017-Nov-05 00:14N 01°19' E 103°38'0 0.0
2017-Nov-04 17:07N 01°19' E 103°38'0 0.0
2017-Nov-04 16:40N 01°19' E 103°38'0 0.0
2017-Nov-04 16:28N 01°19' E 103°38'0 0.0
2017-Nov-04 15:28N 01°19' E 103°38'0 0.0
2017-Nov-04 14:04N 01°19' E 103°38'0 0.0
2017-Nov-04 13:37N 01°19' E 103°38'0 0.0
2017-Nov-04 10:13N 01°19' E 103°38'0 0.0
2017-Nov-04 07:31N 01°19' E 103°38'0 0.0
2017-Nov-04 07:19N 01°19' E 103°38'0 0.0
2017-Nov-04 06:49N 01°19' E 103°38'0 0.0
2017-Nov-04 05:34N 01°19' E 103°38'0 0.0
2017-Nov-04 05:04N 01°19' E 103°38'0 0.0
2017-Nov-04 04:55N 01°19' E 103°38'0 0.0
2017-Nov-04 04:22N 01°19' E 103°38'0 0.0
2017-Nov-04 03:55N 01°19' E 103°38'0 0.0
2017-Nov-04 03:10N 01°19' E 103°38'0 0.0
2017-Nov-04 00:37N 01°19' E 103°38'0 0.0
2017-Nov-04 00:28N 01°19' E 103°38'0 0.0
2017-Nov-03 22:34N 01°19' E 103°38'0 0.0
2017-Nov-03 22:16N 01°19' E 103°38'0 0.0
2017-Nov-03 21:58N 01°19' E 103°38'0 0.0
2017-Nov-03 19:31N 01°19' E 103°38'0 0.0
2017-Nov-03 19:13N 01°19' E 103°38'0 0.0
2017-Nov-03 18:55N 01°19' E 103°38'0 0.0
2017-Nov-03 18:22N 01°19' E 103°38'0 0.0
2017-Nov-03 17:49N 01°19' E 103°38'0 0.0
2017-Nov-03 17:19N 01°19' E 103°38'0 0.0
2017-Nov-03 16:28N 01°19' E 103°38'0 0.0
2017-Nov-03 09:49N 01°19' E 103°38'0 0.0
2017-Nov-03 07:10N 01°19' E 103°38'0 0.0
2017-Nov-03 06:46N 01°19' E 103°38'0 0.0
2017-Nov-03 06:28N 01°19' E 103°38'0 0.0
2017-Nov-03 05:16N 01°19' E 103°38'0 0.2
2017-Nov-03 04:59N 01°19' E 103°38'0 0.4
2017-Nov-03 04:30N 01°19' E 103°38'0 0.0
2017-Nov-03 03:59N 01°19' E 103°38'0 0.3
2017-Nov-03 03:30N 01°19' E 103°38'2 3.4
2017-Nov-03 03:01N 01°17' E 103°39'3 6.4
2017-Nov-03 02:30N 01°14' E 103°40'3 7.0
2017-Nov-03 02:00N 01°11' E 103°41'3 6.7
2017-Nov-03 01:30N 01°09' E 103°44'  
Track history (hours):
 
Tides and Currents Weather Stations Pressure Air Temp Water Temp Dewpoint Dewpoint Depression Visibility Wind Speed Wind Dir Waves Ship Positions

Ken Ryu

Last reported at 2017-Nov-13 01:13 UTC. Time now 2017-Nov-22 13:12 UTC.
Position N 01°13' E 103°29'.
Warning: this ship's position is 9 days out of date.

Length 171 m; draft 6.2 m.

Type: Cargo ship. MMSI: 372936000.

Date/timePositionNaut miles runAvg speedWind from/ knotsBaromVisibWave heightAir tempDewpointWater temp
2017-Nov-13 01:13N 01°13' E 103°29'313.0
2017-Nov-13 01:00N 01°13' E 103°32'712.6
2017-Nov-13 00:29N 01°11' E 103°38'612.9
2017-Nov-13 00:01N 01°09' E 103°44'611.3
2017-Nov-12 23:30N 01°12' E 103°48'1 1.2
2017-Nov-12 22:46N 01°13' E 103°49'0 0.1
2017-Nov-12 20:22N 01°13' E 103°49'0 0.2
2017-Nov-12 19:58N 01°13' E 103°49'3 7.7
2017-Nov-12 19:31N 01°13' E 103°53'3 1.3
2017-Nov-12 16:59N 01°16' E 103°54'0 0.0
2017-Nov-12 16:23N 01°16' E 103°54'0 0.0
2017-Nov-12 15:53N 01°16' E 103°54'0 0.0
2017-Nov-12 06:16N 01°16' E 103°54'0 0.0
2017-Nov-12 05:52N 01°16' E 103°54'0 0.1
2017-Nov-12 05:28N 01°16' E 103°54'0 0.0
2017-Nov-12 04:19N 01°16' E 103°54'0 0.0
2017-Nov-12 03:52N 01°16' E 103°54'0 0.3
2017-Nov-12 03:30N 01°16' E 103°54'1 2.2
2017-Nov-12 03:00N 01°15' E 103°53'4 8.4
2017-Nov-12 02:30N 01°12' E 103°50'611.5
2017-Nov-12 02:01N 01°15' E 103°46'611.4
2017-Nov-12 01:30N 01°13' E 103°40'4 7.7
2017-Nov-12 01:00N 01°16' E 103°39'2 3.0
2017-Nov-12 00:30N 01°18' E 103°39'1 2.3
2017-Nov-12 00:00N 01°19' E 103°38'0 0.0
2017-Nov-11 23:30N 01°19' E 103°38'0 0.0
2017-Nov-11 22:44N 01°19' E 103°38'0 0.0
2017-Nov-11 22:29N 01°19' E 103°38'0 0.0
2017-Nov-11 21:59N 01°19' E 103°38'0 0.0
2017-Nov-11 21:29N 01°19' E 103°38'0 0.0
2017-Nov-11 20:44N 01°19' E 103°38'0 0.0
2017-Nov-11 20:14N 01°19' E 103°38'0 0.0
2017-Nov-11 19:59N 01°19' E 103°38'0 0.0
2017-Nov-11 19:29N 01°19' E 103°38'0 0.0
2017-Nov-11 18:59N 01°19' E 103°38'0 0.0
2017-Nov-11 18:17N 01°19' E 103°38'0 0.0
2017-Nov-11 16:17N 01°19' E 103°38'0 0.0
2017-Nov-11 15:59N 01°19' E 103°38'0 0.0
2017-Nov-11 14:43N 01°19' E 103°38'0 0.0
2017-Nov-11 14:28N 01°19' E 103°38'0 0.0
2017-Nov-11 12:55N 01°19' E 103°38'0 0.0
2017-Nov-11 12:16N 01°19' E 103°38'0 0.0
2017-Nov-11 11:49N 01°19' E 103°38'0 0.0
2017-Nov-11 10:04N 01°19' E 103°38'0 0.0
2017-Nov-11 08:43N 01°19' E 103°38'0 0.0
2017-Nov-11 08:13N 01°19' E 103°38'0 0.0
2017-Nov-11 05:49N 01°19' E 103°38'0 0.0
2017-Nov-11 05:28N 01°19' E 103°38'0 0.0
2017-Nov-11 04:55N 01°19' E 103°38'0 0.0
2017-Nov-10 22:52N 01°19' E 103°38'0 0.0
2017-Nov-10 21:40N 01°19' E 103°38'0 0.0
2017-Nov-10 21:28N 01°19' E 103°38'0 0.0
2017-Nov-10 20:58N 01°19' E 103°38'0 0.0
2017-Nov-10 20:28N 01°19' E 103°38'0 0.0
2017-Nov-10 19:52N 01°19' E 103°38'0 0.0
2017-Nov-10 18:01N 01°19' E 103°38'0 0.0
2017-Nov-10 17:43N 01°19' E 103°38'0 0.0
2017-Nov-10 17:19N 01°19' E 103°38'0 0.0
2017-Nov-10 16:58N 01°19' E 103°38'0 0.0
2017-Nov-10 16:04N 01°19' E 103°38'0 0.0
2017-Nov-10 15:34N 01°19' E 103°38'0 0.0
2017-Nov-10 15:22N 01°19' E 103°38'0 0.0
2017-Nov-10 14:58N 01°19' E 103°38'0 0.0
2017-Nov-10 14:22N 01°19' E 103°38'0 0.0
2017-Nov-10 13:58N 01°19' E 103°38'0 0.0
2017-Nov-10 12:55N 01°19' E 103°38'0 0.0
2017-Nov-10 09:13N 01°19' E 103°38'0 0.0
2017-Nov-10 08:43N 01°19' E 103°38'0 0.0
2017-Nov-10 06:13N 01°19' E 103°38'0 0.0
2017-Nov-10 05:55N 01°19' E 103°38'0 0.0
2017-Nov-10 04:46N 01°19' E 103°38'0 0.0
2017-Nov-10 04:22N 01°19' E 103°38'0 0.0
2017-Nov-10 03:52N 01°19' E 103°38'0 0.0
2017-Nov-10 03:28N 01°19' E 103°38'0 0.0
2017-Nov-10 02:55N 01°19' E 103°38'0 0.0
2017-Nov-10 02:19N 01°19' E 103°38'0 0.0
2017-Nov-10 01:46N 01°19' E 103°38'0 0.0
2017-Nov-10 01:22N 01°19' E 103°38'0 0.0
2017-Nov-10 00:40N 01°19' E 103°38'0 0.0
2017-Nov-09 22:58N 01°19' E 103°38'0 0.0
2017-Nov-09 22:30N 01°19' E 103°38'0 0.0
2017-Nov-09 21:27N 01°19' E 103°38'0 0.0
2017-Nov-09 20:57N 01°19' E 103°38'0 0.0
2017-Nov-09 20:21N 01°19' E 103°38'0 0.0
2017-Nov-09 20:00N 01°19' E 103°38'0 0.0
2017-Nov-09 19:00N 01°19' E 103°38'0 0.0
2017-Nov-09 18:30N 01°19' E 103°38'0 0.0
2017-Nov-09 16:36N 01°19' E 103°38'0 0.0
2017-Nov-09 16:30N 01°19' E 103°38'0 0.0
2017-Nov-09 15:42N 01°19' E 103°38'0 0.0
2017-Nov-09 15:27N 01°19' E 103°38'0 0.0
2017-Nov-09 15:00N 01°19' E 103°38'0 0.0
2017-Nov-09 14:18N 01°19' E 103°38'0 0.0
2017-Nov-09 13:57N 01°19' E 103°38'0 0.0
2017-Nov-09 13:12N 01°19' E 103°38'0 0.0
2017-Nov-09 13:00N 01°19' E 103°38'0 0.0
2017-Nov-09 12:27N 01°19' E 103°38'0 0.0
2017-Nov-09 11:48N 01°19' E 103°38'0 0.0
2017-Nov-09 11:27N 01°19' E 103°38'0 0.0
2017-Nov-09 11:00N 01°19' E 103°38'0 0.0
2017-Nov-09 10:18N 01°19' E 103°38'0 0.0
2017-Nov-09 09:57N 01°19' E 103°38'0 0.0
2017-Nov-09 09:30N 01°19' E 103°38'0 0.0
2017-Nov-09 09:00N 01°19' E 103°38'0 0.0
2017-Nov-09 08:27N 01°19' E 103°38'0 0.0
2017-Nov-09 07:54N 01°19' E 103°38'0 0.0
2017-Nov-09 07:30N 01°19' E 103°38'0 0.0
2017-Nov-09 06:51N 01°19' E 103°38'0 0.0
2017-Nov-09 06:27N 01°19' E 103°38'0 0.0
2017-Nov-09 05:54N 01°19' E 103°38'0 0.0
2017-Nov-09 05:15N 01°19' E 103°38'0 0.0
2017-Nov-09 04:51N 01°19' E 103°38'0 0.0
2017-Nov-09 04:24N 01°19' E 103°38'0 0.0
2017-Nov-09 03:30N 01°19' E 103°38'0 0.0
2017-Nov-09 02:03N 01°19' E 103°38'0 0.0
2017-Nov-09 01:51N 01°19' E 103°38'0 0.0
2017-Nov-09 01:30N 01°19' E 103°38'0 0.0
2017-Nov-09 01:00N 01°19' E 103°38'0 0.0
2017-Nov-09 00:18N 01°19' E 103°38'0 0.0
2017-Nov-08 23:54N 01°19' E 103°38'0 0.0
2017-Nov-08 23:15N 01°19' E 103°38'0 0.0
2017-Nov-08 20:24N 01°19' E 103°38'0 0.0
2017-Nov-08 20:00N 01°19' E 103°38'0 0.0
2017-Nov-08 19:06N 01°19' E 103°38'0 0.0
2017-Nov-08 19:00N 01°19' E 103°38'0 0.0
2017-Nov-08 17:21N 01°19' E 103°38'0 0.0
2017-Nov-08 16:03N 01°19' E 103°38'0 0.0
2017-Nov-08 16:00N 01°19' E 103°38'0 0.0
2017-Nov-08 15:30N 01°19' E 103°38'0 0.0
2017-Nov-08 14:12N 01°19' E 103°38'0 0.0
2017-Nov-08 13:54N 01°19' E 103°38'0 0.0
2017-Nov-08 13:21N 01°19' E 103°38'0 0.0
2017-Nov-08 12:57N 01°19' E 103°38'0 0.0
2017-Nov-08 11:39N 01°19' E 103°38'0 0.0
2017-Nov-08 11:27N 01°19' E 103°38'0 0.0
2017-Nov-08 11:00N 01°19' E 103°38'0 0.0
2017-Nov-08 10:30N 01°19' E 103°38'0 0.0
2017-Nov-08 07:39N 01°19' E 103°38'0 0.0
2017-Nov-08 07:29N 01°19' E 103°38'0 0.0
2017-Nov-08 06:59N 01°19' E 103°38'0 0.0
2017-Nov-08 06:05N 01°19' E 103°38'0 0.0
2017-Nov-08 05:56N 01°19' E 103°38'0 0.0
2017-Nov-08 05:23N 01°19' E 103°38'0 0.0
2017-Nov-08 04:56N 01°19' E 103°38'0 0.0
2017-Nov-08 04:20N 01°19' E 103°38'0 0.0
2017-Nov-08 03:38N 01°19' E 103°38'0 0.0
2017-Nov-08 03:23N 01°19' E 103°38'0 0.0
2017-Nov-08 02:47N 01°19' E 103°38'0 0.0
2017-Nov-08 02:29N 01°19' E 103°38'0 0.0
2017-Nov-08 01:47N 01°19' E 103°38'0 0.0
2017-Nov-08 01:29N 01°19' E 103°38'0 0.0
2017-Nov-08 00:56N 01°19' E 103°38'0 0.0
2017-Nov-08 00:02N 01°19' E 103°38'0 0.0
2017-Nov-07 23:20N 01°19' E 103°38'0 0.0
2017-Nov-07 22:47N 01°19' E 103°38'0 0.0
2017-Nov-07 22:20N 01°19' E 103°38'0 0.0
2017-Nov-07 21:35N 01°19' E 103°38'0 0.0
2017-Nov-07 21:05N 01°19' E 103°38'0 0.0
2017-Nov-07 20:59N 01°19' E 103°38'0 0.0
2017-Nov-07 20:14N 01°19' E 103°38'0 0.0
2017-Nov-07 19:59N 01°19' E 103°38'0 0.0
2017-Nov-07 19:26N 01°19' E 103°38'0 0.0
2017-Nov-07 18:38N 01°19' E 103°38'0 0.0
2017-Nov-07 18:29N 01°19' E 103°38'0 0.0
2017-Nov-07 17:53N 01°19' E 103°38'0 0.0
2017-Nov-07 17:26N 01°19' E 103°38'0 0.0
2017-Nov-07 16:59N 01°19' E 103°38'0 0.0
2017-Nov-07 16:29N 01°19' E 103°38'0 0.0
2017-Nov-07 15:56N 01°19' E 103°38'0 0.0
2017-Nov-07 15:23N 01°19' E 103°38'0 0.0
2017-Nov-07 14:41N 01°19' E 103°38'0 0.0
2017-Nov-07 14:23N 01°19' E 103°38'0 0.0
2017-Nov-07 13:59N 01°19' E 103°38'0 0.0
2017-Nov-07 13:05N 01°19' E 103°38'0 0.0
2017-Nov-07 12:56N 01°19' E 103°38'0 0.0
2017-Nov-07 12:26N 01°19' E 103°38'0 0.0
2017-Nov-07 11:59N 01°19' E 103°38'0 0.0
2017-Nov-07 11:23N 01°19' E 103°38'0 0.0
2017-Nov-07 10:59N 01°19' E 103°38'0 0.0
2017-Nov-07 10:29N 01°19' E 103°38'0 0.0
2017-Nov-07 09:59N 01°19' E 103°38'0 0.0
2017-Nov-07 09:29N 01°19' E 103°38'0 0.0
2017-Nov-07 08:59N 01°19' E 103°38'0 0.0
2017-Nov-07 08:08N 01°19' E 103°38'0 0.0
2017-Nov-07 07:44N 01°19' E 103°38'0 0.0
2017-Nov-07 05:38N 01°19' E 103°38'0 0.0
2017-Nov-07 05:23N 01°19' E 103°38'0 0.0
2017-Nov-07 04:02N 01°19' E 103°38'0 0.0
2017-Nov-07 02:50N 01°19' E 103°38'0 0.0
2017-Nov-07 00:59N 01°19' E 103°38'0 0.0
2017-Nov-06 23:38N 01°19' E 103°38'0 0.0
2017-Nov-06 23:26N 01°19' E 103°38'0 0.0
2017-Nov-06 22:17N 01°19' E 103°38'0 0.0
2017-Nov-06 21:59N 01°19' E 103°38'0 0.0
2017-Nov-06 21:23N 01°19' E 103°38'0 0.0
2017-Nov-06 20:08N 01°19' E 103°38'0 0.0
2017-Nov-06 02:19N 01°19' E 103°38'0 0.0
2017-Nov-06 00:40N 01°19' E 103°38'0 0.0
2017-Nov-06 00:28N 01°19' E 103°38'0 0.0
2017-Nov-05 23:58N 01°19' E 103°38'0 0.0
2017-Nov-05 20:04N 01°19' E 103°38'0 0.0
2017-Nov-05 16:37N 01°19' E 103°38'0 0.0
2017-Nov-05 16:28N 01°19' E 103°38'0 0.0
2017-Nov-05 11:56N 01°19' E 103°38'0 0.0
2017-Nov-05 10:38N 01°19' E 103°38'0 0.0
2017-Nov-05 10:23N 01°19' E 103°38'0 0.0
2017-Nov-05 09:59N 01°19' E 103°38'0 0.0
2017-Nov-05 04:53N 01°19' E 103°38'0 0.0
2017-Nov-05 02:47N 01°19' E 103°38'0 0.0
2017-Nov-05 00:14N 01°19' E 103°38'0 0.0
2017-Nov-04 17:07N 01°19' E 103°38'0 0.0
2017-Nov-04 16:40N 01°19' E 103°38'0 0.0
2017-Nov-04 16:28N 01°19' E 103°38'0 0.0
2017-Nov-04 15:28N 01°19' E 103°38'0 0.0
2017-Nov-04 14:04N 01°19' E 103°38'0 0.0
2017-Nov-04 13:37N 01°19' E 103°38'0 0.0
2017-Nov-04 10:13N 01°19' E 103°38'0 0.0
2017-Nov-04 07:31N 01°19' E 103°38'0 0.0
2017-Nov-04 07:19N 01°19' E 103°38'0 0.0
2017-Nov-04 06:49N 01°19' E 103°38'0 0.0
2017-Nov-04 05:34N 01°19' E 103°38'0 0.0
2017-Nov-04 05:04N 01°19' E 103°38'0 0.0
2017-Nov-04 04:55N 01°19' E 103°38'0 0.0
2017-Nov-04 04:22N 01°19' E 103°38'0 0.0
2017-Nov-04 03:55N 01°19' E 103°38'0 0.0
2017-Nov-04 03:10N 01°19' E 103°38'0 0.0
2017-Nov-04 00:37N 01°19' E 103°38'0 0.0
2017-Nov-04 00:28N 01°19' E 103°38'0 0.0
2017-Nov-03 22:34N 01°19' E 103°38'0 0.0
2017-Nov-03 22:16N 01°19' E 103°38'0 0.0
2017-Nov-03 21:58N 01°19' E 103°38'0 0.0
2017-Nov-03 19:31N 01°19' E 103°38'0 0.0
2017-Nov-03 19:13N 01°19' E 103°38'0 0.0
2017-Nov-03 18:55N 01°19' E 103°38'0 0.0
2017-Nov-03 18:22N 01°19' E 103°38'0 0.0
2017-Nov-03 17:49N 01°19' E 103°38'0 0.0
2017-Nov-03 17:19N 01°19' E 103°38'0 0.0
2017-Nov-03 16:28N 01°19' E 103°38'0 0.0
2017-Nov-03 09:49N 01°19' E 103°38'0 0.0
2017-Nov-03 07:10N 01°19' E 103°38'0 0.0
2017-Nov-03 06:46N 01°19' E 103°38'0 0.0
2017-Nov-03 06:28N 01°19' E 103°38'0 0.0
2017-Nov-03 05:16N 01°19' E 103°38'0 0.2
2017-Nov-03 04:59N 01°19' E 103°38'0 0.4
2017-Nov-03 04:30N 01°19' E 103°38'0 0.0
2017-Nov-03 03:59N 01°19' E 103°38'0 0.3
2017-Nov-03 03:30N 01°19' E 103°38'2 3.4
2017-Nov-03 03:01N 01°17' E 103°39'3 6.4
2017-Nov-03 02:30N 01°14' E 103°40'3 7.0
2017-Nov-03 02:00N 01°11' E 103°41'3 6.7
2017-Nov-03 01:30N 01°09' E 103°44'  

Dump ship's entire track history